Time;durP1;ratioP1;P1;durP2;ratioP2;P2;SDS_P1;SDS_P2;PMS_P1;PMS_P2;Temp;Humidity;BMP_temperature;BMP_pressure;BME280_temperature;BME280_humidity;BME280_pressure;Samples;Min_cycle;Max_cycle;Signal;HPM_P1;HPM_P2
2022/05/22 00:03:35;;;;;;;1.15;1.10;;;;;;;23.01;32.95;100239.31;20799340;27;99975;-76
2022/05/22 00:13:36;;;;;;;1.92;1.00;;;;;;;22.91;32.85;100233.19;20798578;27;97687;-76
2022/05/22 00:23:36;;;;;;;1.30;1.20;;;;;;;22.88;32.82;100227.31;20793789;27;97678;-76
2022/05/22 00:33:37;;;;;;;2.45;1.30;;;;;;;22.80;32.93;100218.28;20798333;27;100758;-77
2022/05/22 00:43:58;;;;;;;1.13;1.05;;;;;;;22.78;33.12;100216.72;20794928;27;99858;-77
2022/05/22 00:54:22;;;;;;;2.13;1.00;;;;;;;22.69;33.22;100213.91;20781255;27;97636;-77
2022/05/22 01:04:26;;;;;;;1.48;1.30;;;;;;;22.65;33.18;100215.13;20762641;27;97632;-76
2022/05/22 01:14:28;;;;;;;1.35;1.00;;;;;;;22.63;33.29;100203.91;20790006;27;98365;-77
2022/05/22 01:24:29;;;;;;;1.20;1.00;;;;;;;22.58;33.49;100199.97;20763598;27;97224;-76
2022/05/22 01:34:30;;;;;;;1.88;1.08;;;;;;;22.56;33.36;100210.66;20790529;27;98544;-76
2022/05/22 01:44:30;;;;;;;1.25;1.13;;;;;;;22.56;33.44;100205.38;20766784;27;99519;-76
2022/05/22 01:54:31;;;;;;;2.47;1.00;;;;;;;22.50;33.85;100198.00;20794003;27;100711;-76
2022/05/22 02:04:32;;;;;;;3.20;0.90;;;;;;;22.39;33.59;100196.28;20784234;27;97584;-76
2022/05/22 02:14:33;;;;;;;1.87;1.40;;;;;;;22.36;33.70;100202.63;20789582;27;99675;-76
2022/05/22 02:24:38;;;;;;;1.85;1.20;;;;;;;22.32;33.86;100203.84;20788876;27;97038;-75
2022/05/22 02:34:40;;;;;;;1.98;1.20;;;;;;;22.28;33.88;100197.16;20792379;27;99108;-76
2022/05/22 02:44:40;;;;;;;1.40;1.17;;;;;;;22.16;34.27;100211.41;20807587;27;98394;-75
2022/05/22 02:54:40;;;;;;;1.27;1.17;;;;;;;22.26;34.24;100211.47;20773820;27;98204;-76
2022/05/22 03:04:41;;;;;;;2.90;1.20;;;;;;;22.16;34.73;100209.59;20792281;27;96992;-76
2022/05/22 03:14:48;;;;;;;1.63;1.30;;;;;;;22.12;35.11;100224.00;20800207;27;100529;-75
2022/05/22 03:24:50;;;;;;;2.05;1.40;;;;;;;22.16;34.79;100229.88;20778494;27;98197;-75
2022/05/22 03:34:50;;;;;;;2.63;1.67;;;;;;;22.10;34.62;100227.75;20795697;27;97981;-75
2022/05/22 03:44:52;;;;;;;1.42;1.15;;;;;;;22.08;34.47;100225.22;20758564;27;100403;-75
2022/05/22 03:54:52;;;;;;;2.03;1.48;;;;;;;21.94;34.72;100233.47;20782973;27;98681;-75
2022/05/22 04:04:53;;;;;;;1.90;1.40;;;;;;;21.96;34.31;100248.19;20767158;27;99107;-76
2022/05/22 04:14:54;;;;;;;1.27;1.20;;;;;;;21.84;34.51;100257.13;20781957;27;98358;-75
2022/05/22 04:25:12;;;;;;;2.30;1.23;;;;;;;21.80;34.55;100259.16;20763119;27;98157;-76
2022/05/22 04:35:13;;;;;;;1.88;1.40;;;;;;;21.70;35.39;100271.41;20779669;27;97408;-76
2022/05/22 04:45:14;;;;;;;3.42;1.80;;;;;;;21.82;34.71;100262.47;20766629;27;101875;-76
2022/05/22 04:55:15;;;;;;;1.63;1.40;;;;;;;21.95;34.99;100254.41;20780047;27;98372;-75
2022/05/22 05:05:15;;;;;;;1.70;1.15;;;;;;;21.99;34.86;100247.09;20787758;27;99044;-75
2022/05/22 05:15:19;;;;;;;2.95;1.25;;;;;;;22.06;34.55;100253.53;20735366;27;99085;-75
2022/05/22 05:25:19;;;;;;;67.50;33.22;;;;;;;22.13;34.45;100251.19;20786056;27;97828;-75
2022/05/22 05:35:20;;;;;;;19.83;11.60;;;;;;;22.17;34.67;100253.47;20753004;27;98322;-74
2022/05/22 05:45:22;;;;;;;6.53;4.37;;;;;;;22.18;34.40;100263.03;20731122;27;100134;-75
2022/05/22 05:55:24;;;;;;;4.68;2.47;;;;;;;22.25;34.67;100267.81;20744660;27;99061;-76
2022/05/22 06:05:24;;;;;;;3.00;1.70;;;;;;;22.22;35.08;100259.19;20731148;27;100870;-79
2022/05/22 06:15:25;;;;;;;2.60;2.00;;;;;;;22.28;34.90;100252.56;20767087;27;100443;-78
2022/05/22 06:25:25;;;;;;;2.33;1.50;;;;;;;22.24;34.18;100248.53;20786150;27;100919;-80
2022/05/22 06:35:26;;;;;;;1.98;1.10;;;;;;;22.26;34.43;100256.28;20791702;27;98121;-81
2022/05/22 06:45:28;;;;;;;2.70;1.75;;;;;;;22.41;33.77;100256.81;20793012;27;97740;-83
2022/05/22 06:55:29;;;;;;;;;;;;;;;22.48;34.08;100250.06;20773606;27;97719;-79
2022/05/22 07:05:29;;;;;;;2.25;1.20;;;;;;;22.44;33.68;100251.31;20764211;27;99308;-76
2022/05/22 07:15:31;;;;;;;1.98;1.30;;;;;;;22.39;33.37;100233.22;20772830;27;100829;-77
2022/05/22 07:25:31;;;;;;;1.20;1.05;;;;;;;22.42;33.72;100217.13;20793157;27;100161;-78
2022/05/22 07:35:32;;;;;;;1.77;1.13;;;;;;;22.41;33.78;100211.97;20759690;27;98985;-75
2022/05/22 07:45:33;;;;;;;4.50;1.35;;;;;;;22.44;34.02;100214.38;20786102;27;97992;-78
2022/05/22 07:55:34;;;;;;;2.92;1.20;;;;;;;22.49;33.63;100205.06;20805249;27;100287;-77
2022/05/22 08:05:34;;;;;;;2.63;1.17;;;;;;;22.43;33.33;100197.69;20802141;27;99382;-78
2022/05/22 08:15:37;;;;;;;11.02;1.20;;;;;;;22.43;32.86;100192.41;20805208;27;97043;-77
2022/05/22 08:25:38;;;;;;;5.80;1.15;;;;;;;22.44;32.77;100174.78;20807058;27;98632;-78
2022/05/22 08:35:42;;;;;;;2.10;1.13;;;;;;;22.40;33.14;100182.13;20799262;27;97244;-81
2022/05/22 08:45:51;;;;;;;1.80;1.00;;;;;;;22.42;32.89;100166.16;20825212;27;100386;-78
2022/05/22 09:06:22;;;;;;;4.57;1.20;;;;;;;22.27;33.99;100160.38;20771881;27;98144;-74
2022/05/22 09:16:34;;;;;;;2.13;1.38;;;;;;;22.40;34.04;100158.38;20774672;27;97409;-79
2022/05/22 09:27:17;;;;;;;3.17;1.20;;;;;;;22.53;33.25;100129.97;20803688;27;97994;-80
2022/05/22 09:37:23;;;;;;;4.80;1.20;;;;;;;22.53;32.75;100119.41;20790219;27;97504;-79
2022/05/22 09:47:39;;;;;;;2.17;1.00;;;;;;;22.57;32.24;100113.84;20829223;27;96833;-80
2022/05/22 09:57:54;;;;;;;2.05;1.10;;;;;;;22.66;32.15;100113.88;20810180;27;97034;-79
2022/05/22 10:08:13;;;;;;;6.03;1.27;;;;;;;22.79;31.88;100118.91;20815075;27;98223;-79
2022/05/22 10:18:19;;;;;;;2.20;1.00;;;;;;;22.94;31.30;100106.16;20805265;27;98283;-78
2022/05/22 10:28:28;;;;;;;2.05;0.98;;;;;;;23.05;30.21;100099.91;20795432;27;97913;-79
2022/05/22 10:38:35;;;;;;;3.75;1.30;;;;;;;23.22;31.29;100090.50;20783983;27;97433;-81
2022/05/22 10:48:47;;;;;;;1.50;1.00;;;;;;;23.30;30.77;100081.88;20787613;27;100799;-77
2022/05/22 10:59:04;;;;;;;1.33;1.00;;;;;;;23.48;32.17;100093.38;20783550;27;98860;-78
2022/05/22 11:09:07;;;;;;;4.00;1.17;;;;;;;23.65;30.58;100091.00;20781159;27;97328;-78
2022/05/22 11:19:11;;;;;;;25.77;6.35;;;;;;;23.87;31.46;100070.50;20803860;27;97677;-79
2022/05/22 11:29:25;;;;;;;3.22;2.00;;;;;;;24.04;30.57;100066.28;20795208;27;100532;-79
2022/05/22 11:39:28;;;;;;;4.03;1.60;;;;;;;24.25;30.33;100050.19;20790113;27;99240;-78
2022/05/22 11:49:38;;;;;;;4.85;1.10;;;;;;;24.42;30.20;100041.44;20797494;27;98447;-78
2022/05/22 11:59:53;;;;;;;2.42;1.27;;;;;;;24.51;28.91;100031.78;20820663;27;97776;-80
2022/05/22 12:10:09;;;;;;;2.22;1.17;;;;;;;24.67;30.30;100009.97;20805485;27;97078;-78
2022/05/22 12:20:19;;;;;;;1.25;0.93;;;;;;;24.80;29.90;100006.09;20813389;27;97656;-79
2022/05/22 12:30:43;;;;;;;1.73;1.20;;;;;;;24.89;28.95;100006.03;20808954;27;97069;-81
2022/05/22 12:40:58;;;;;;;3.63;1.30;;;;;;;24.99;28.74;99997.16;20812881;27;96941;-80
2022/05/22 12:51:10;;;;;;;3.47;1.10;;;;;;;25.07;28.84;99989.25;20811266;27;97374;-81
2022/05/22 13:01:37;;;;;;;4.43;1.02;;;;;;;25.15;28.70;99978.72;20792398;27;97515;-82
2022/05/22 13:11:44;;;;;;;1.65;0.98;;;;;;;25.18;28.64;99972.28;20823369;27;97600;-80
2022/05/22 13:21:45;;;;;;;1.42;0.88;;;;;;;25.26;29.15;99972.34;20823630;27;98405;-81
2022/05/22 13:31:53;;;;;;;2.75;1.20;;;;;;;25.32;28.98;99944.41;20765416;27;100433;-80
2022/05/22 13:42:35;;;;;;;4.75;1.17;;;;;;;25.44;30.52;99934.38;20758929;27;97320;-79
2022/05/22 13:52:41;;;;;;;2.95;1.30;;;;;;;25.44;28.37;99929.06;20740124;27;98244;-79
2022/05/22 14:02:52;;;;;;;3.58;1.33;;;;;;;25.50;30.65;99937.22;20768839;27;98479;-77
2022/05/22 14:12:54;;;;;;;2.53;1.50;;;;;;;25.55;29.31;99920.88;20782198;27;97576;-77
2022/05/22 14:23:18;;;;;;;3.53;1.73;;;;;;;25.49;28.17;99940.88;20803751;27;99028;-78
2022/05/22 14:33:20;;;;;;;3.17;1.27;;;;;;;25.38;28.18;99918.13;20796757;27;98072;-81
2022/05/22 14:43:24;;;;;;;4.65;1.58;;;;;;;25.53;28.72;99909.56;20791050;27;99539;-77
2022/05/22 14:53:37;;;;;;;6.18;1.20;;;;;;;25.57;29.16;99897.66;20773670;27;98013;-75
2022/05/22 15:03:46;;;;;;;4.72;1.05;;;;;;;25.62;29.30;99898.03;20771287;27;100134;-77
2022/05/22 15:13:58;;;;;;;2.67;1.02;;;;;;;25.61;30.00;99896.34;20772484;27;98729;-79
2022/05/22 15:34:27;;;;;;;2.35;0.90;;;;;;;25.65;28.89;99889.75;20804060;27;97296;-77
2022/05/22 15:44:40;;;;;;;2.95;1.08;;;;;;;25.68;28.42;99885.94;20813372;27;96830;-77
2022/05/22 15:54:42;;;;;;;2.17;1.08;;;;;;;25.67;28.35;99885.13;20782959;27;98544;-75
2022/05/22 16:04:44;;;;;;;1.23;0.80;;;;;;;25.59;27.84;99886.91;20818948;27;96975;-73
2022/05/22 16:14:44;;;;;;;1.95;1.00;;;;;;;25.61;28.18;99876.97;20817243;27;100466;-75
2022/05/22 16:24:45;;;;;;;1.70;0.80;;;;;;;25.57;27.28;99871.16;20827722;27;99016;-75
2022/05/22 16:34:45;;;;;;;1.73;1.10;;;;;;;25.53;27.05;99877.75;20802627;27;98301;-74
2022/05/22 16:44:46;;;;;;;4.38;1.30;;;;;;;25.30;27.71;99878.28;20783446;27;98038;-72
2022/05/22 16:54:47;;;;;;;3.25;1.13;;;;;;;25.18;27.49;99880.41;20732512;27;97472;-75
2022/05/22 17:04:48;;;;;;;1.80;1.30;;;;;;;25.13;27.56;99884.50;20759912;27;97989;-76
2022/05/22 17:14:48;;;;;;;3.40;1.17;;;;;;;25.01;28.06;99895.38;20786328;27;100919;-77
2022/05/22 17:24:55;;;;;;;1.50;1.17;;;;;;;24.86;27.73;99897.75;20779331;27;98785;-76
2022/05/22 17:34:55;;;;;;;5.07;1.30;;;;;;;24.64;28.20;99892.94;20801354;27;97998;-78
2022/05/22 17:44:56;;;;;;;2.85;1.27;;;;;;;24.50;28.01;99905.72;20807269;27;99012;-75
2022/05/22 17:54:58;;;;;;;1.75;1.30;;;;;;;24.28;28.36;99910.50;20794762;27;97644;-76
2022/05/22 18:04:59;;;;;;;1.10;1.00;;;;;;;24.12;28.76;99919.09;20791935;27;99967;-77
2022/05/22 18:25:41;;;;;;;5.82;1.08;;;;;;;24.61;29.60;99912.59;20555640;27;98051;-76
2022/05/22 18:35:42;;;;;;;4.75;1.10;;;;;;;24.75;30.78;99908.59;20775985;27;98187;-77
2022/05/22 18:45:49;;;;;;;3.67;1.40;;;;;;;24.83;31.28;99910.47;20757033;27;99254;-76
2022/05/22 18:55:49;;;;;;;4.03;1.30;;;;;;;24.78;31.43;99918.88;20764733;27;98366;-77
2022/05/22 19:05:51;;;;;;;2.80;1.45;;;;;;;24.75;31.56;99930.59;20756520;27;101397;-78
2022/05/22 19:15:52;;;;;;;2.83;1.40;;;;;;;24.73;31.44;99943.16;20773965;27;100656;-79
2022/05/22 19:25:54;;;;;;;4.40;1.25;;;;;;;24.68;31.30;99947.25;20792600;27;97157;-78
2022/05/22 19:35:55;;;;;;;2.55;1.27;;;;;;;24.74;31.38;99962.53;20769918;27;97481;-78
2022/05/22 19:45:57;;;;;;;1.30;1.20;;;;;;;24.72;32.05;99962.69;20788766;27;97237;-76
2022/05/22 20:06:21;;;;;;;2.88;1.50;;;;;;;24.67;32.20;99967.63;20794825;27;97584;-77
2022/05/22 20:16:29;;;;;;;2.42;1.77;;;;;;;24.65;32.19;99972.19;20804367;27;96840;-77
2022/05/22 20:26:29;;;;;;;2.42;1.40;;;;;;;24.63;31.89;99976.78;20789984;27;101598;-77
2022/05/22 20:36:30;;;;;;;1.83;1.30;;;;;;;24.59;31.91;99973.63;20803382;27;99183;-77
2022/05/22 20:46:30;;;;;;;2.55;1.30;;;;;;;24.55;32.06;99969.63;20783895;27;98077;-78
2022/05/22 20:56:51;;;;;;;2.17;1.20;;;;;;;24.52;32.21;99961.97;20798479;27;101439;-78
2022/05/22 21:06:52;;;;;;;3.90;1.52;;;;;;;24.52;32.33;99966.44;20802491;27;97785;-79
2022/05/22 21:16:54;;;;;;;5.65;1.77;;;;;;;24.48;32.55;99955.31;20800861;27;97903;-77
2022/05/22 21:37:15;;;;;;;3.35;1.30;;;;;;;24.42;32.56;99977.91;20813165;27;97709;-77
2022/05/22 21:47:16;;;;;;;2.17;1.20;;;;;;;24.39;32.52;99978.22;20799690;27;97863;-78
2022/05/22 21:57:21;;;;;;;2.17;1.30;;;;;;;24.38;32.80;99981.84;20789217;27;97611;-77
2022/05/22 22:07:23;;;;;;;1.30;1.20;;;;;;;24.40;32.87;99984.34;20787421;27;97167;-77
2022/05/22 22:17:23;;;;;;;2.40;1.23;;;;;;;24.40;32.97;99990.50;20766697;27;97077;-77
2022/05/22 22:27:30;;;;;;;2.53;1.40;;;;;;;24.40;32.96;99990.50;20765219;27;99369;-77
2022/05/22 22:37:31;;;;;;;10.18;1.45;;;;;;;24.40;33.07;99990.50;20784246;27;98457;-77
2022/05/22 22:47:31;;;;;;;2.78;1.20;;;;;;;24.40;32.87;99997.56;20773115;27;99711;-76
2022/05/22 23:07:51;;;;;;;1.48;1.20;;;;;;;24.39;33.31;100007.34;20804001;27;98376;-76
2022/05/22 23:17:52;;;;;;;1.35;1.10;;;;;;;24.37;33.55;100009.28;20803265;27;100432;-77
2022/05/22 23:27:55;;;;;;;2.53;1.23;;;;;;;24.36;33.71;100001.50;20800510;27;97149;-77
2022/05/22 23:38:07;;;;;;;1.17;0.98;;;;;;;24.37;33.90;100006.66;20805194;27;97170;-76
2022/05/22 23:48:09;;;;;;;2.40;1.25;;;;;;;24.35;33.71;100010.44;20788058;27;97143;-78
2022/05/22 23:58:10;;;;;;;1.33;0.90;;;;;;;24.35;33.85;100023.66;20768491;27;99946;-77
